Time;durP1;ratioP1;P1;durP2;ratioP2;P2;SDS_P1;SDS_P2;PMS_P1;PMS_P2;Temp;Humidity;BMP_temperature;BMP_pressure;BME280_temperature;BME280_humidity;BME280_pressure;Samples;Min_cycle;Max_cycle;Signal;HPM_P1;HPM_P2
2022/02/11 00:00:50;;;;;;;8.38;4.90;;;;;;;1.14;62.41;93149.72;2048180;70;20158;-77
2022/02/11 00:08:52;;;;;;;7.32;4.40;;;;;;;1.25;62.13;93152.25;2049085;70;20150;-72
2022/02/11 00:11:21;;;;;;;8.82;5.03;;;;;;;1.54;61.74;93146.75;2047982;70;20137;-72
2022/02/11 00:13:46;;;;;;;7.43;4.18;;;;;;;1.66;60.73;93136.91;2048225;70;20149;-69
2022/02/11 00:16:12;;;;;;;9.10;4.60;;;;;;;1.64;61.12;93135.94;2047126;70;20573;-76
2022/02/11 00:18:38;;;;;;;7.90;4.80;;;;;;;1.17;62.74;93145.13;2047960;70;20515;-68
2022/02/11 00:21:03;;;;;;;9.15;4.50;;;;;;;1.47;61.91;93148.19;2050275;70;20518;-71
2022/02/11 00:23:31;;;;;;;9.52;4.80;;;;;;;1.76;60.63;93146.22;2048352;70;20653;-70
2022/02/11 00:26:02;;;;;;;9.95;5.50;;;;;;;1.78;60.98;93140.84;2048251;70;20146;-73
2022/02/11 00:31:32;;;;;;;9.95;5.10;;;;;;;1.92;60.69;93143.56;2050236;70;20177;-75
2022/02/11 00:33:56;;;;;;;9.38;4.72;;;;;;;2.03;60.04;93132.16;2048074;70;20158;-70
2022/02/11 00:36:30;;;;;;;10.18;5.28;;;;;;;2.08;59.45;93131.28;2048212;70;20143;-75
2022/02/11 01:05:50;;;;;;;10.30;5.43;;;;;;;1.63;62.04;93117.81;2048189;70;20617;-69
2022/02/11 01:08:16;;;;;;;8.60;5.05;;;;;;;1.58;62.84;93116.66;2048125;70;20163;-69
2022/02/11 01:10:43;;;;;;;8.75;5.65;;;;;;;1.71;62.52;93105.47;2048142;70;20170;-69
2022/02/11 01:13:09;;;;;;;13.02;6.63;;;;;;;1.42;63.45;93101.91;2048273;70;20229;-73
2022/02/11 01:15:37;;;;;;;12.27;5.68;;;;;;;1.72;61.21;93090.31;2047918;70;20229;-71
2022/02/11 01:18:07;;;;;;;11.45;6.25;;;;;;;1.71;61.69;93088.81;2048047;70;20155;-71
2022/02/11 01:31:06;;;;;;;10.77;6.03;;;;;;;1.38;62.76;93082.09;2050662;70;20239;-71
2022/02/11 02:03:15;;;;;;;14.30;5.90;;;;;;;1.31;63.69;93030.06;2048402;70;20170;-70
2022/02/11 02:32:56;;;;;;;12.65;6.25;;;;;;;1.38;63.66;92987.03;2047757;70;20146;-69
2022/02/11 02:38:17;;;;;;;10.15;5.50;;;;;;;1.14;65.11;92979.81;2048297;70;20170;-71
2022/02/11 03:49:19;;;;;;;9.25;5.40;;;;;;;1.74;63.39;92956.50;2048226;70;20150;-69
2022/02/11 04:59:56;;;;;;;9.40;5.85;;;;;;;2.11;62.81;92948.91;2050510;70;20586;-70
2022/02/11 05:02:30;;;;;;;10.75;5.55;;;;;;;2.14;61.90;92931.13;2048183;70;20153;-76
2022/02/11 05:04:57;;;;;;;12.88;5.75;;;;;;;2.06;63.33;92935.91;2048707;70;20142;-73
2022/02/11 05:07:23;;;;;;;10.15;5.97;;;;;;;2.05;63.53;92926.84;2051115;70;20143;-78
2022/02/11 05:09:48;;;;;;;9.85;5.45;;;;;;;2.06;63.36;92922.78;2048839;70;20139;-70
2022/02/11 05:12:14;;;;;;;10.50;5.70;;;;;;;2.07;61.88;92921.50;2051020;70;20158;-70
2022/02/11 05:14:39;;;;;;;9.88;5.82;;;;;;;2.06;62.58;92919.25;2045542;70;20249;-69
2022/02/11 05:17:05;;;;;;;8.77;4.82;;;;;;;2.09;61.96;92913.34;2048828;70;20182;-73
2022/02/11 05:19:31;;;;;;;7.72;4.07;;;;;;;1.88;63.27;92932.16;2045571;70;20239;-73
2022/02/11 05:21:56;;;;;;;8.05;4.75;;;;;;;1.47;65.28;92942.13;2048881;70;20237;-77
2022/02/11 05:24:23;;;;;;;10.57;5.60;;;;;;;1.78;63.78;92951.34;2042856;70;20229;-73
2022/02/11 05:26:48;;;;;;;9.95;5.63;;;;;;;1.87;63.73;92953.63;2048788;70;20152;-73
2022/02/11 05:29:14;;;;;;;13.40;7.88;;;;;;;1.95;63.63;92939.78;2048940;70;20222;-73
2022/02/11 05:31:39;;;;;;;13.18;7.22;;;;;;;2.05;62.68;92910.19;2048693;70;20238;-70
2022/02/11 05:34:05;;;;;;;9.60;4.40;;;;;;;1.96;62.48;92897.56;2048841;70;20518;-77
2022/02/11 05:36:31;;;;;;;8.68;5.45;;;;;;;1.96;62.93;92894.78;2045532;70;20591;-72
2022/02/11 05:38:57;;;;;;;7.28;2.78;;;;;;;2.15;60.64;92872.25;2048922;70;20149;-72
2022/02/11 05:41:22;;;;;;;3.65;2.20;;;;;;;2.20;60.88;92870.59;2048857;70;20251;-70
2022/02/11 05:43:48;;;;;;;4.55;2.17;;;;;;;2.13;61.00;92888.00;2049019;70;20246;-71
2022/02/11 05:46:15;;;;;;;6.75;4.22;;;;;;;2.13;60.62;92890.78;2048696;70;20186;-70
2022/02/11 05:48:43;;;;;;;10.27;4.90;;;;;;;2.10;61.73;92889.09;2048731;70;20174;-70
2022/02/11 05:51:08;;;;;;;8.93;4.97;;;;;;;2.08;61.71;92888.91;2048758;70;20155;-73
2022/02/11 05:53:34;;;;;;;4.80;2.80;;;;;;;1.92;61.42;92879.78;2048767;70;20202;-73
2022/02/11 05:56:00;;;;;;;3.28;2.17;;;;;;;2.17;59.06;92860.59;2045533;70;20221;-77
2022/02/11 05:58:26;;;;;;;8.48;2.35;;;;;;;2.31;58.26;92872.28;2048774;70;20138;-75
2022/02/11 06:00:51;;;;;;;10.38;4.28;;;;;;;1.88;59.04;92879.38;2048640;70;20151;-74
2022/02/11 06:03:17;;;;;;;10.57;5.15;;;;;;;2.24;59.11;92876.53;2048769;70;20616;-79
2022/02/11 06:05:42;;;;;;;10.48;5.70;;;;;;;1.67;63.36;92887.84;2048236;70;20134;-74
2022/02/11 06:08:08;;;;;;;12.10;5.68;;;;;;;1.96;61.89;92903.13;2048691;70;20155;-77
2022/02/11 06:10:33;;;;;;;8.65;4.78;;;;;;;2.10;61.26;92903.72;2048729;70;20143;-77
2022/02/11 06:12:59;;;;;;;10.82;5.50;;;;;;;1.71;62.89;92918.75;2048856;70;20154;-70
2022/02/11 06:15:25;;;;;;;10.63;5.63;;;;;;;2.00;62.24;92917.38;2045396;70;20170;-70
2022/02/11 06:17:50;;;;;;;9.50;5.15;;;;;;;2.16;61.59;92918.19;2048832;70;20146;-70
2022/02/11 06:20:16;;;;;;;52.38;25.42;;;;;;;2.00;61.85;92930.53;2048670;70;20150;-70
2022/02/11 06:22:44;;;;;;;23.55;13.65;;;;;;;2.23;61.13;92931.34;2048681;70;20139;-70
2022/02/11 06:25:11;;;;;;;17.13;8.50;;;;;;;2.24;60.97;92937.66;2050924;70;20218;-70
2022/02/11 06:27:37;;;;;;;10.77;6.28;;;;;;;2.32;60.75;92949.53;2048678;70;20135;-69
2022/02/11 06:30:03;;;;;;;9.38;5.20;;;;;;;2.34;60.76;92951.75;2048698;70;20139;-70
2022/02/11 06:32:28;;;;;;;9.65;5.18;;;;;;;2.26;60.11;92968.41;2050805;70;20161;-69
2022/02/11 06:34:56;;;;;;;10.07;5.13;;;;;;;2.36;59.75;92986.03;2048976;70;20428;-73
2022/02/11 06:37:21;;;;;;;8.32;5.50;;;;;;;2.44;58.99;92991.63;2050948;70;20251;-70
2022/02/11 06:39:47;;;;;;;10.23;6.47;;;;;;;2.16;60.87;92998.00;2048705;70;20607;-74
2022/02/11 06:42:13;;;;;;;11.70;6.45;;;;;;;2.33;60.15;92998.25;2048784;70;20583;-69
2022/02/11 06:44:38;;;;;;;10.32;5.50;;;;;;;2.45;59.64;93002.19;2048677;70;20162;-74
2022/02/11 06:47:04;;;;;;;16.20;5.80;;;;;;;2.39;60.07;93009.22;2048095;70;20166;-70
2022/02/11 06:49:31;;;;;;;10.43;5.82;;;;;;;2.48;59.63;93017.75;2045421;70;20134;-74
2022/02/11 06:51:58;;;;;;;9.98;5.93;;;;;;;2.57;59.33;93024.84;2045537;70;20170;-72
2022/02/11 06:54:23;;;;;;;17.10;8.35;;;;;;;2.59;59.34;93038.91;2048692;70;20213;-69
2022/02/11 06:56:49;;;;;;;12.85;5.97;;;;;;;2.66;59.00;93051.38;2045287;70;20154;-73
2022/02/11 06:59:14;;;;;;;9.70;6.38;;;;;;;2.57;59.21;93058.19;2048568;70;20183;-74
2022/02/11 07:01:41;;;;;;;13.85;7.38;;;;;;;2.61;59.04;93080.81;2048438;70;20153;-74
2022/02/11 07:04:07;;;;;;;13.55;6.18;;;;;;;2.53;59.53;93074.47;2048554;70;20150;-71
2022/02/11 07:06:32;;;;;;;11.63;5.55;;;;;;;2.68;59.12;93082.88;2048736;70;20147;-75
2022/02/11 07:08:58;;;;;;;8.82;4.97;;;;;;;2.77;59.18;93103.84;2048726;70;20147;-75
2022/02/11 07:11:24;;;;;;;9.60;5.50;;;;;;;2.79;59.30;93117.94;2045367;70;20158;-75
2022/02/11 07:13:49;;;;;;;14.20;6.38;;;;;;;2.64;59.78;93126.22;2048641;70;20134;-75
2022/02/11 07:16:18;;;;;;;15.45;6.82;;;;;;;2.78;60.11;93136.66;2048434;70;20178;-77
2022/02/11 07:18:44;;;;;;;13.05;6.85;;;;;;;2.85;58.72;93143.56;2048589;70;20320;-76
2022/02/11 07:21:10;;;;;;;14.85;6.60;;;;;;;2.82;60.20;93149.47;2048512;70;20147;-77
2022/02/11 07:23:36;;;;;;;11.45;6.65;;;;;;;2.60;61.14;93157.13;2045282;70;20642;-74
2022/02/11 07:26:01;;;;;;;17.52;8.50;;;;;;;2.79;60.30;93171.53;2048513;70;20143;-72
2022/02/11 07:28:27;;;;;;;14.70;7.80;;;;;;;2.91;59.71;93187.88;2050695;70;20134;-69
2022/02/11 07:30:53;;;;;;;12.27;7.03;;;;;;;2.93;59.84;93186.03;2047860;70;20147;-72
2022/02/11 07:33:18;;;;;;;13.95;8.18;;;;;;;2.83;60.16;93198.22;2048590;70;20182;-77
2022/02/11 07:35:44;;;;;;;18.10;8.80;;;;;;;2.90;60.11;93194.75;2048592;70;20601;-78
2022/02/11 07:38:11;;;;;;;11.50;7.32;;;;;;;2.95;60.74;93205.69;2048589;70;20191;-75
2022/02/11 07:40:40;;;;;;;11.57;6.63;;;;;;;2.90;61.84;93220.50;2048522;70;20209;-72
2022/02/11 07:43:06;;;;;;;14.85;7.25;;;;;;;2.87;63.51;93220.84;2048521;70;20665;-74
2022/02/11 07:45:34;;;;;;;13.65;7.85;;;;;;;2.86;62.19;93231.25;2048486;70;20230;-78
2022/02/11 07:48:00;;;;;;;12.35;7.35;;;;;;;2.94;61.45;93226.47;2048595;70;20140;-71
2022/02/11 07:50:26;;;;;;;12.00;7.05;;;;;;;2.92;63.27;93237.38;2048523;70;20143;-71
2022/02/11 07:52:52;;;;;;;13.52;8.50;;;;;;;2.69;64.31;93242.06;2045242;70;20139;-74
2022/02/11 07:55:18;;;;;;;53.80;22.55;;;;;;;2.77;63.23;93245.66;2048552;70;20146;-75
2022/02/11 07:57:44;;;;;;;55.30;25.70;;;;;;;2.70;65.28;93252.66;2048668;70;20138;-73
2022/02/11 08:00:10;;;;;;;32.65;16.85;;;;;;;2.78;64.53;93255.47;2048407;70;20518;-73
2022/02/11 08:02:39;;;;;;;32.67;16.30;;;;;;;2.89;65.57;93263.53;2048373;70;20142;-72
2022/02/11 08:05:06;;;;;;;38.15;19.02;;;;;;;2.96;65.65;93268.38;2048519;70;20246;-69
2022/02/11 08:07:31;;;;;;;39.05;20.80;;;;;;;3.03;65.46;93276.03;2050786;70;20238;-69
2022/02/11 08:09:57;;;;;;;34.33;18.45;;;;;;;3.11;64.76;93289.97;2048580;70;20157;-70
2022/02/11 08:12:23;;;;;;;25.67;14.30;;;;;;;3.01;67.34;93291.75;2048503;70;20304;-70
2022/02/11 08:14:48;;;;;;;22.27;11.60;;;;;;;3.05;63.88;93303.28;2048463;70;20135;-69
2022/02/11 08:17:14;;;;;;;21.17;12.25;;;;;;;3.20;65.82;93305.41;2045250;70;20154;-72
2022/02/11 08:19:39;;;;;;;24.50;12.48;;;;;;;3.31;66.26;93310.69;2048409;70;20161;-69
2022/02/11 08:22:05;;;;;;;27.00;14.25;;;;;;;3.31;66.75;93316.97;2048530;70;20209;-74
2022/02/11 08:24:31;;;;;;;13.10;6.13;;;;;;;3.12;67.65;93324.84;2048426;70;20149;-74
2022/02/11 08:26:56;;;;;;;9.35;5.70;;;;;;;3.35;66.85;93322.19;2048652;70;20204;-73
2022/02/11 08:29:25;;;;;;;12.02;5.60;;;;;;;3.12;66.58;93321.34;2048426;70;20189;-70
2022/02/11 08:31:55;;;;;;;6.40;4.15;;;;;;;3.00;69.60;93320.88;2048329;70;20583;-70
2022/02/11 08:34:24;;;;;;;8.32;4.75;;;;;;;3.36;69.47;93328.50;2048390;70;20146;-73
2022/02/11 08:36:50;;;;;;;20.85;7.10;;;;;;;3.36;66.82;93322.94;2047892;70;20153;-73
2022/02/11 08:39:17;;;;;;;17.65;9.60;;;;;;;3.54;67.26;93338.63;2048156;70;20257;-69
2022/02/11 08:41:43;;;;;;;12.98;7.38;;;;;;;3.42;70.40;93334.66;2048504;70;20150;-70
2022/02/11 08:44:09;;;;;;;16.27;9.10;;;;;;;3.56;69.42;93347.16;2048575;70;20155;-76
2022/02/11 08:46:34;;;;;;;17.38;7.20;;;;;;;3.83;67.34;93345.59;2048292;70;20174;-74
2022/02/11 08:49:00;;;;;;;15.38;7.53;;;;;;;3.92;67.81;93343.59;2048633;70;20139;-79
2022/02/11 08:51:27;;;;;;;16.02;6.32;;;;;;;3.77;69.35;93352.63;2048399;70;20155;-74
2022/02/11 08:53:53;;;;;;;16.45;6.28;;;;;;;3.65;70.42;93359.81;2048472;70;20170;-73
2022/02/11 08:56:19;;;;;;;14.73;7.03;;;;;;;3.66;70.34;93361.31;2048456;70;20173;-82
2022/02/11 08:58:44;;;;;;;19.95;10.80;;;;;;;3.79;69.82;93373.06;2048501;70;20412;-88
2022/02/11 09:01:10;;;;;;;14.10;8.10;;;;;;;3.90;69.81;93362.91;2047819;70;20173;-74
2022/02/11 09:03:36;;;;;;;13.32;5.57;;;;;;;4.00;68.76;93377.78;2048322;70;20198;-75
2022/02/11 09:06:06;;;;;;;13.32;5.60;;;;;;;4.04;66.50;93378.94;2048348;70;20141;-70
2022/02/11 09:08:33;;;;;;;12.80;6.30;;;;;;;4.12;67.98;93383.75;2048400;70;20137;-74
2022/02/11 09:11:00;;;;;;;13.18;6.93;;;;;;;4.21;67.46;93388.81;2048388;70;20610;-73
2022/02/11 09:13:27;;;;;;;13.20;7.75;;;;;;;4.26;67.28;93393.47;2048387;70;20185;-70
2022/02/11 09:15:56;;;;;;;17.15;8.40;;;;;;;4.17;67.29;93397.56;2048386;70;20214;-70
2022/02/11 09:18:22;;;;;;;15.02;9.23;;;;;;;3.95;68.17;93393.38;2048308;70;20147;-71
2022/02/11 09:20:49;;;;;;;18.52;8.20;;;;;;;4.14;67.77;93398.66;2047892;70;20137;-77
2022/02/11 09:23:16;;;;;;;16.02;7.97;;;;;;;4.20;67.71;93401.25;2048333;70;20583;-74
2022/02/11 09:25:42;;;;;;;12.43;7.10;;;;;;;4.29;63.97;93398.69;2048520;70;20143;-76
2022/02/11 09:28:07;;;;;;;12.20;6.90;;;;;;;4.18;66.88;93409.44;2048383;70;20161;-74
2022/02/11 09:30:33;;;;;;;15.40;6.45;;;;;;;4.32;63.60;93405.94;2048336;70;20166;-78
2022/02/11 09:33:00;;;;;;;15.45;6.50;;;;;;;4.45;64.60;93407.09;2048333;70;20142;-81
2022/02/11 09:35:30;;;;;;;16.80;6.28;;;;;;;4.43;66.68;93410.44;2048374;70;20174;-71
2022/02/11 09:37:57;;;;;;;11.40;6.05;;;;;;;4.04;69.54;93417.94;2050573;70;20167;-72
2022/02/11 09:40:23;;;;;;;9.80;6.32;;;;;;;3.96;68.84;93422.72;2048271;70;20153;-70
2022/02/11 09:42:54;;;;;;;14.30;9.02;;;;;;;3.87;69.16;93428.06;2048256;70;20263;-70
2022/02/11 09:45:23;;;;;;;23.67;16.00;;;;;;;4.17;69.48;93436.56;2048177;70;20149;-69
2022/02/11 09:47:50;;;;;;;18.27;10.48;;;;;;;4.50;65.72;93442.44;2048152;70;20154;-69
2022/02/11 09:50:18;;;;;;;14.82;8.27;;;;;;;4.68;67.14;93440.63;2048381;70;20155;-70
2022/02/11 09:52:48;;;;;;;20.40;10.75;;;;;;;4.30;68.07;93446.81;2048792;70;20181;-72
2022/02/11 09:55:32;;;;;;;17.02;10.25;;;;;;;4.56;66.67;93440.22;2048792;70;20226;-73
2022/02/11 09:58:29;;;;;;;20.15;11.38;;;;;;;4.74;66.39;93458.66;2048887;70;20143;-71
2022/02/11 10:00:55;;;;;;;23.60;14.68;;;;;;;4.78;64.58;93461.84;2041223;70;20292;-72
2022/02/11 10:03:31;;;;;;;16.92;9.40;;;;;;;4.89;65.77;93455.16;2041462;70;20159;-73
2022/02/11 10:05:57;;;;;;;17.30;9.35;;;;;;;4.96;65.84;93456.47;2041510;70;20170;-74
2022/02/11 10:08:30;;;;;;;22.65;11.57;;;;;;;5.00;66.53;93465.97;2041332;70;20336;-79
2022/02/11 10:11:00;;;;;;;15.95;10.75;;;;;;;4.97;66.87;93464.28;2041386;70;20214;-79
2022/02/11 10:13:35;;;;;;;18.70;10.88;;;;;;;4.97;65.98;93467.06;2041422;70;20219;-76
2022/02/11 10:16:09;;;;;;;24.67;13.25;;;;;;;5.03;64.81;93473.22;2038589;70;20135;-79
2022/02/11 10:18:37;;;;;;;16.55;10.68;;;;;;;4.94;64.31;93479.34;2041432;70;20141;-77
2022/02/11 10:21:05;;;;;;;22.35;12.32;;;;;;;4.39;67.73;93484.56;2041406;70;20155;-75
2022/02/11 10:23:42;;;;;;;17.17;10.60;;;;;;;4.44;68.72;93489.25;2041396;70;20145;-77
2022/02/11 10:26:13;;;;;;;14.75;9.70;;;;;;;4.80;67.60;93494.75;2041526;70;20174;-74
2022/02/11 10:28:44;;;;;;;21.58;12.25;;;;;;;4.79;67.52;93504.41;2041320;70;20253;-74
2022/02/11 10:31:21;;;;;;;24.80;12.57;;;;;;;4.86;66.65;93506.50;2041267;70;20147;-74
2022/02/11 10:34:06;;;;;;;19.88;11.65;;;;;;;4.95;65.16;93496.81;2041355;70;20140;-72
2022/02/11 10:36:36;;;;;;;23.98;9.13;;;;;;;4.83;66.04;93502.00;2042283;70;20151;-78
2022/02/11 10:39:08;;;;;;;17.67;9.30;;;;;;;4.95;65.05;93513.56;2045409;70;20238;-78
2022/02/11 10:41:36;;;;;;;;;;;;;;;4.99;65.52;93513.94;2045757;70;20135;-78
2022/02/11 10:44:15;;;;;;;9.85;5.55;;;;;;;4.99;64.67;93511.16;2047638;70;20082;-78
2022/02/11 10:46:45;;;;;;;5.47;2.78;;;;;;;4.72;63.01;93516.28;2045397;70;20178;-80
2022/02/11 10:49:13;;;;;;;2.97;1.90;;;;;;;4.68;62.03;93516.69;2045415;70;20150;-73
2022/02/11 10:51:42;;;;;;;4.35;2.30;;;;;;;5.16;60.53;93516.22;2044920;70;20151;-70
2022/02/11 10:54:29;;;;;;;4.88;1.95;;;;;;;5.21;57.85;93523.66;2045049;70;20169;-72
2022/02/11 10:57:00;;;;;;;9.38;3.28;;;;;;;5.26;57.17;93517.16;2045395;70;20139;-71
2022/02/11 10:59:32;;;;;;;3.95;2.03;;;;;;;5.32;57.23;93520.53;2046343;70;20174;-70
2022/02/11 11:02:01;;;;;;;1.38;0.90;;;;;;;5.63;56.60;93524.06;2048407;70;20171;-70
2022/02/11 11:04:27;;;;;;;1.73;1.15;;;;;;;5.97;56.84;93526.50;2048653;70;20168;-70
2022/02/11 11:06:54;;;;;;;1.63;1.08;;;;;;;5.75;55.20;93530.03;2048668;70;20194;-70
2022/02/11 11:09:20;;;;;;;0.90;0.70;;;;;;;5.81;55.31;93530.56;2048842;70;20304;-71
2022/02/11 11:11:47;;;;;;;1.08;0.77;;;;;;;6.17;55.30;93533.16;2048641;70;20158;-78
2022/02/11 11:14:16;;;;;;;1.77;1.10;;;;;;;6.41;56.03;93531.06;2048583;70;20182;-70
2022/02/11 11:16:43;;;;;;;1.23;1.02;;;;;;;6.25;55.24;93533.91;2048541;70;20249;-68
2022/02/11 11:19:10;;;;;;;2.42;0.80;;;;;;;6.28;54.19;93529.97;2048589;70;20149;-74
2022/02/11 11:21:43;;;;;;;0.77;0.60;;;;;;;6.47;53.82;93534.41;2048611;70;20170;-72
2022/02/11 11:24:10;;;;;;;0.88;0.55;;;;;;;6.54;54.21;93525.97;2048575;70;20146;-70
2022/02/11 11:26:44;;;;;;;1.83;0.70;;;;;;;6.62;53.56;93535.09;2050871;70;20293;-70
2022/02/11 11:29:12;;;;;;;0.52;0.30;;;;;;;6.76;53.08;93524.41;2045357;70;20229;-74
2022/02/11 11:31:38;;;;;;;0.47;0.40;;;;;;;6.81;52.91;93525.50;2048433;70;20602;-79
2022/02/11 11:34:16;;;;;;;17.88;5.60;;;;;;;6.68;51.51;93523.69;2048558;70;20213;-70
2022/02/11 11:36:45;;;;;;;2.88;1.38;;;;;;;6.95;52.95;93515.53;2048571;70;20161;-71
2022/02/11 11:39:11;;;;;;;1.23;0.70;;;;;;;7.07;52.58;93510.25;2048639;70;20599;-71
2022/02/11 11:41:37;;;;;;;2.08;1.10;;;;;;;7.13;51.92;93513.56;2048664;70;20165;-71
2022/02/11 11:44:17;;;;;;;2.38;1.15;;;;;;;7.59;50.49;93513.25;2048573;70;20166;-70
2022/02/11 11:46:50;;;;;;;2.72;0.93;;;;;;;8.03;50.19;93512.72;2050660;70;20150;-69
2022/02/11 11:49:15;;;;;;;2.20;0.70;;;;;;;8.05;48.59;93512.88;2051215;70;20154;-70
2022/02/11 11:51:44;;;;;;;1.98;0.65;;;;;;;8.49;47.82;93515.81;2051285;70;20142;-69
2022/02/11 11:54:15;;;;;;;3.70;0.80;;;;;;;9.00;46.38;93514.28;2051291;70;20130;-70
2022/02/11 11:56:44;;;;;;;1.05;0.95;;;;;;;10.01;47.69;93522.72;2051626;70;20189;-69
2022/02/11 11:59:16;;;;;;;4.72;2.72;;;;;;;9.21;44.69;93516.63;2051355;70;20817;-69
2022/02/11 12:02:00;;;;;;;9.77;4.43;;;;;;;9.74;43.77;93519.97;2051386;70;20149;-73
2022/02/11 12:04:31;;;;;;;8.88;5.00;;;;;;;9.71;43.87;93523.94;2051310;70;20146;-69
2022/02/11 12:06:59;;;;;;;5.45;2.50;;;;;;;9.37;43.67;93517.88;2051402;70;20736;-79
2022/02/11 12:09:25;;;;;;;2.08;1.35;;;;;;;8.78;44.38;93507.63;2048136;70;20181;-70
2022/02/11 12:12:01;;;;;;;8.90;4.80;;;;;;;9.33;44.81;93509.13;2051012;70;20200;-71
2022/02/11 12:14:30;;;;;;;5.18;3.05;;;;;;;9.34;43.48;93516.22;2051430;70;20241;-73
2022/02/11 12:16:59;;;;;;;3.22;1.80;;;;;;;9.30;42.80;93510.31;2051528;70;20229;-71
2022/02/11 12:19:26;;;;;;;1.50;1.20;;;;;;;9.21;42.75;93513.06;2051006;70;20202;-75
2022/02/11 12:21:52;;;;;;;1.85;1.35;;;;;;;9.21;43.99;93510.25;2051623;70;20154;-73
2022/02/11 12:27:21;;;;;;;2.05;0.80;;;;;;;9.22;42.86;93509.69;2051887;70;20206;-76
2022/02/11 12:29:58;;;;;;;2.08;0.88;;;;;;;9.80;43.45;93523.25;2051580;70;20146;-74
2022/02/11 12:32:31;;;;;;;3.50;0.70;;;;;;;10.33;42.09;93518.81;2051256;70;20178;-74
2022/02/11 12:35:02;;;;;;;1.63;0.80;;;;;;;9.36;39.52;93521.28;2051362;70;20207;-78
2022/02/11 12:37:30;;;;;;;3.75;0.88;;;;;;;9.27;42.47;93519.16;2051639;70;20149;-72
2022/02/11 12:40:24;;;;;;;2.70;1.40;;;;;;;9.53;41.44;93514.84;2051499;70;20193;-73
2022/02/11 12:42:52;;;;;;;0.40;0.35;;;;;;;9.21;41.05;93521.47;2050688;70;20591;-80
2022/02/11 12:45:26;;;;;;;0.88;0.40;;;;;;;9.14;41.06;93525.88;2051532;70;20225;-75
2022/02/11 12:47:54;;;;;;;1.00;0.63;;;;;;;9.39;41.08;93523.69;2050907;70;20158;-70
2022/02/11 12:50:31;;;;;;;1.83;0.60;;;;;;;8.82;40.33;93519.19;2051309;70;20141;-70
2022/02/11 12:52:59;;;;;;;2.78;0.80;;;;;;;8.87;41.81;93520.97;2051409;70;20323;-72
2022/02/11 12:55:24;;;;;;;3.17;1.05;;;;;;;8.88;40.46;93516.09;2051573;70;20162;-69
2022/02/11 12:57:52;;;;;;;4.22;1.40;;;;;;;8.71;42.28;93522.50;2051423;70;20234;-78
2022/02/11 13:00:26;;;;;;;1.40;0.77;;;;;;;8.74;40.52;93520.59;2051478;70;20185;-71
2022/02/11 13:03:01;;;;;;;3.72;0.40;;;;;;;8.71;39.83;93530.94;2051376;70;20653;-71
2022/02/11 13:05:33;;;;;;;2.10;0.80;;;;;;;8.93;40.79;93528.41;2051487;70;20142;-69
2022/02/11 13:08:01;;;;;;;4.47;0.80;;;;;;;9.05;40.98;93532.19;2050466;70;20185;-70
2022/02/11 13:10:32;;;;;;;2.85;0.75;;;;;;;8.59;42.08;93529.94;2051326;70;20225;-70
2022/02/11 13:13:06;;;;;;;3.92;0.80;;;;;;;8.65;42.41;93533.22;2051020;70;20145;-70
2022/02/11 13:15:35;;;;;;;2.60;1.00;;;;;;;8.90;42.53;93533.13;2050978;70;20170;-71
2022/02/11 13:18:12;;;;;;;1.17;0.90;;;;;;;8.98;41.42;93535.81;2051123;70;20138;-73
2022/02/11 13:20:43;;;;;;;1.38;1.02;;;;;;;9.16;41.60;93538.03;2051264;70;20138;-69
2022/02/11 13:23:13;;;;;;;7.10;1.80;;;;;;;8.74;42.15;93537.44;2051277;70;20586;-69
2022/02/11 13:25:40;;;;;;;1.70;1.00;;;;;;;8.75;41.71;93536.09;2051659;70;20154;-69
2022/02/11 13:28:11;;;;;;;1.63;0.98;;;;;;;8.90;41.43;93533.88;2051261;70;20161;-76
2022/02/11 13:30:40;;;;;;;4.70;1.40;;;;;;;8.75;42.36;93527.69;2051743;70;20181;-69
2022/02/11 13:33:32;;;;;;;3.17;1.15;;;;;;;8.67;41.65;93543.88;2051642;70;20162;-69
2022/02/11 13:36:03;;;;;;;3.60;1.02;;;;;;;8.84;41.96;93535.44;2051668;70;20170;-72
2022/02/11 13:38:31;;;;;;;4.82;0.98;;;;;;;8.53;42.72;93540.66;2051529;70;20241;-72
2022/02/11 13:41:07;;;;;;;1.20;0.82;;;;;;;8.34;41.24;93532.81;2051779;70;20147;-71
2022/02/11 13:43:57;;;;;;;4.47;1.00;;;;;;;8.17;41.90;93541.94;2051911;70;20633;-72
2022/02/11 13:46:38;;;;;;;2.65;0.95;;;;;;;8.13;41.47;93541.59;2051672;70;20154;-68
2022/02/11 13:49:09;;;;;;;1.42;1.17;;;;;;;7.96;41.84;93547.91;2052102;70;20260;-69
2022/02/11 13:51:37;;;;;;;2.35;2.13;;;;;;;8.04;43.97;93554.19;2052099;70;20188;-71
2022/02/11 13:54:14;;;;;;;3.75;1.55;;;;;;;7.95;42.72;93554.84;2052038;70;20170;-74
2022/02/11 13:56:42;;;;;;;7.53;4.38;;;;;;;7.73;43.29;93556.50;2052091;70;20154;-71
2022/02/11 13:59:11;;;;;;;34.58;18.40;;;;;;;7.68;43.57;93553.94;2051941;70;20143;-74
2022/02/11 14:01:36;;;;;;;45.25;26.55;;;;;;;7.52;43.91;93567.31;2051864;70;20194;-73
2022/02/11 14:04:10;;;;;;;7.93;5.43;;;;;;;7.12;42.08;93568.09;2052030;70;20273;-71
2022/02/11 14:06:51;;;;;;;5.25;2.58;;;;;;;7.41;42.47;93564.94;2052000;70;20161;-70
2022/02/11 14:09:37;;;;;;;1.65;1.50;;;;;;;7.41;41.11;93559.34;2052003;70;20134;-74
2022/02/11 14:12:21;;;;;;;3.72;2.90;;;;;;;7.69;42.05;93561.75;2051478;70;20582;-71
2022/02/11 14:15:05;;;;;;;3.20;2.53;;;;;;;7.74;43.10;93569.19;2051867;70;20281;-71
2022/02/11 14:17:34;;;;;;;1.48;1.17;;;;;;;7.77;42.57;93568.06;2051867;70;20138;-74
2022/02/11 14:20:00;;;;;;;2.58;1.50;;;;;;;7.88;43.75;93583.69;2051965;70;20150;-71
2022/02/11 14:22:25;;;;;;;2.10;1.20;;;;;;;7.89;42.29;93585.91;2051901;70;20139;-70
2022/02/11 14:24:51;;;;;;;1.52;1.10;;;;;;;7.63;43.36;93598.41;2051945;70;20174;-73
2022/02/11 14:27:17;;;;;;;4.47;1.10;;;;;;;7.68;43.36;93596.72;2052037;70;20595;-71
2022/02/11 14:29:43;;;;;;;7.57;1.15;;;;;;;7.75;43.54;93598.72;2052066;70;20138;-72
2022/02/11 14:32:08;;;;;;;4.75;1.08;;;;;;;7.76;43.46;93603.00;2054084;70;20613;-71
2022/02/11 14:34:34;;;;;;;7.63;1.50;;;;;;;7.75;42.76;93603.59;2051932;70;20239;-72
2022/02/11 14:37:01;;;;;;;5.97;1.65;;;;;;;7.70;42.84;93601.72;2051878;70;20143;-72
2022/02/11 14:39:27;;;;;;;2.25;1.58;;;;;;;7.62;42.31;93607.41;2051900;70;20143;-71
2022/02/11 14:41:55;;;;;;;3.30;1.35;;;;;;;7.70;43.14;93608.09;2052052;70;20153;-70
2022/02/11 14:44:26;;;;;;;5.32;1.70;;;;;;;7.61;44.37;93609.47;2051428;70;20134;-73
2022/02/11 14:46:57;;;;;;;2.03;1.50;;;;;;;7.54;45.23;93612.31;2053988;69;20222;-72
2022/02/11 14:49:24;;;;;;;3.75;1.63;;;;;;;7.16;45.48;93607.66;2051956;70;20510;-75
2022/02/11 14:51:55;;;;;;;1.75;0.90;;;;;;;7.41;43.43;93606.97;2054133;70;20141;-70
2022/02/11 14:54:22;;;;;;;1.38;0.90;;;;;;;7.41;43.05;93615.38;2054097;70;20153;-76
2022/02/11 14:56:50;;;;;;;0.77;0.65;;;;;;;7.38;42.56;93608.84;2054110;70;20289;-71
2022/02/11 14:59:16;;;;;;;5.03;1.33;;;;;;;7.48;44.46;93617.41;2051830;70;20182;-70
2022/02/11 15:01:44;;;;;;;7.93;2.38;;;;;;;7.33;44.54;93615.41;2051740;70;20200;-70
2022/02/11 15:04:10;;;;;;;2.22;1.30;;;;;;;7.21;44.04;93629.09;2051920;70;20173;-73
2022/02/11 15:06:37;;;;;;;4.20;1.33;;;;;;;7.12;44.29;93636.03;2051868;70;20166;-72
2022/02/11 15:09:03;;;;;;;1.50;0.80;;;;;;;7.11;45.00;93633.81;2051844;70;20158;-72
2022/02/11 15:11:29;;;;;;;1.33;0.85;;;;;;;6.92;41.93;93633.50;2051916;70;20151;-71
2022/02/11 15:13:55;;;;;;;2.03;1.25;;;;;;;6.99;43.72;93647.47;2051846;70;20134;-70
2022/02/11 15:16:21;;;;;;;0.60;0.60;;;;;;;6.82;44.30;93639.69;2051744;70;20138;-74
2022/02/11 15:18:47;;;;;;;0.77;0.60;;;;;;;6.44;43.14;93639.03;2051495;70;20165;-76
2022/02/11 15:21:14;;;;;;;1.52;0.70;;;;;;;6.65;41.08;93638.81;2051956;70;20230;-71
2022/02/11 15:23:41;;;;;;;8.43;3.30;;;;;;;6.50;43.64;93639.56;2051835;70;20310;-77
2022/02/11 15:26:10;;;;;;;1.65;1.05;;;;;;;6.32;44.84;93645.00;2051801;70;20158;-72
2022/02/11 15:28:37;;;;;;;4.38;2.50;;;;;;;6.25;45.16;93642.97;2051774;70;20151;-70
2022/02/11 15:31:04;;;;;;;3.47;1.50;;;;;;;6.04;46.71;93645.94;2051720;70;20217;-73
2022/02/11 15:33:30;;;;;;;2.60;0.85;;;;;;;6.08;45.38;93648.34;2051916;70;20623;-71
2022/02/11 15:35:57;;;;;;;10.85;5.50;;;;;;;5.99;46.86;93648.91;2051769;70;20154;-71
2022/02/11 15:38:23;;;;;;;9.07;2.30;;;;;;;5.80;46.81;93663.97;2051753;70;20154;-73
2022/02/11 15:40:49;;;;;;;5.95;1.83;;;;;;;5.76;47.50;93669.16;2051752;70;20150;-71
2022/02/11 15:43:22;;;;;;;8.25;4.20;;;;;;;5.60;46.24;93674.00;2051767;70;20224;-72
2022/02/11 15:45:48;;;;;;;47.95;28.58;;;;;;;5.59;47.54;93675.31;2051664;70;20154;-72
2022/02/11 15:48:14;;;;;;;34.55;20.85;;;;;;;5.44;46.97;93660.53;2048319;70;20526;-72